Time;durP1;ratioP1;P1;durP2;ratioP2;P2;SDS_P1;SDS_P2;PMS_P1;PMS_P2;Temp;Humidity;BMP_temperature;BMP_pressure;BME280_temperature;BME280_humidity;BME280_pressure;Samples;Min_cycle;Max_cycle;Signal;HPM_P1;HPM_P2
2022/04/28 00:01:35;;;;;;;33.17;20.07;;;5.70;99.90;;;;;;10424549;28;20041;-82
2022/04/28 00:06:35;;;;;;;33.90;19.50;;;5.70;99.90;;;;;;10432053;28;20115;-82
2022/04/28 00:11:36;;;;;;;31.67;19.03;;;5.60;99.90;;;;;;10428476;28;20033;-83
2022/04/28 00:16:37;;;;;;;39.13;21.60;;;5.70;99.90;;;;;;10424399;28;20465;-82
2022/04/28 00:21:38;;;;;;;41.13;21.80;;;5.60;99.90;;;;;;10444775;28;20086;-82
2022/04/28 00:26:38;;;;;;;39.33;22.37;;;5.50;99.90;;;;;;10393978;28;20444;-85
2022/04/28 00:31:39;;;;;;;43.00;22.47;;;5.60;99.90;;;;;;10428026;28;20086;-82
2022/04/28 00:36:40;;;;;;;42.43;23.13;;;5.60;99.90;;;;;;10427307;28;20026;-83
2022/04/28 00:41:40;;;;;;;40.47;23.37;;;5.50;99.90;;;;;;10411405;28;20049;-82
2022/04/28 00:46:43;;;;;;;47.77;25.93;;;5.40;99.90;;;;;;10422330;28;20035;-82
2022/04/28 00:51:44;;;;;;;47.03;24.30;;;5.30;99.90;;;;;;10411931;28;20033;-83
2022/04/28 00:56:45;;;;;;;46.67;25.37;;;5.20;99.90;;;;;;10431592;28;20370;-85
2022/04/28 01:01:46;;;;;;;41.30;24.03;;;5.30;99.90;;;;;;10442377;28;20041;-84
2022/04/28 01:06:47;;;;;;;50.70;27.00;;;5.30;99.90;;;;;;10445128;28;20533;-83
2022/04/28 01:11:47;;;;;;;46.20;26.83;;;5.30;99.90;;;;;;10448182;28;20116;-83
2022/04/28 01:16:48;;;;;;;52.67;27.27;;;5.20;99.90;;;;;;10447808;28;20039;-86
2022/04/28 01:21:51;;;;;;;49.37;27.57;;;5.10;99.90;;;;;;10449454;28;20071;-84
2022/04/28 01:26:58;;;;;;;44.83;25.90;;;5.00;99.90;;;;;;10428851;28;20025;-84
2022/04/28 01:31:58;;;;;;;45.93;24.93;;;5.00;99.90;;;;;;10425018;28;20029;-83
2022/04/28 01:36:59;;;;;;;45.83;24.50;;;5.00;99.90;;;;;;10449366;28;20350;-82
2022/04/28 01:42:00;;;;;;;47.13;22.50;;;5.00;99.90;;;;;;10450037;28;20043;-86
2022/04/28 01:47:00;;;;;;;36.30;19.43;;;5.10;99.90;;;;;;10427243;28;20055;-82
2022/04/28 01:57:20;;;;;;;35.17;18.97;;;5.20;99.90;;;;;;10445773;28;20447;-83
2022/04/28 02:02:21;;;;;;;33.23;17.70;;;5.40;99.90;;;;;;10436600;28;20037;-86
2022/04/28 02:07:22;;;;;;;32.90;16.93;;;5.40;99.90;;;;;;10435445;28;20034;-82
2022/04/28 02:12:24;;;;;;;32.77;17.70;;;5.30;99.90;;;;;;10408364;28;20056;-83
2022/04/28 02:17:27;;;;;;;30.93;17.83;;;5.40;99.90;;;;;;10426961;28;20033;-84
2022/04/28 02:22:28;;;;;;;36.53;18.57;;;5.50;99.90;;;;;;10448257;28;20426;-82
2022/04/28 02:27:29;;;;;;;32.13;17.93;;;5.50;99.90;;;;;;10448908;28;20097;-83
2022/04/28 02:33:08;;;;;;;32.57;17.83;;;5.70;99.90;;;;;;10423451;28;20030;-82
2022/04/28 02:37:50;;;;;;;30.37;17.53;;;5.60;99.90;;;;;;10424387;28;20059;-82
2022/04/28 02:42:52;;;;;;;33.87;18.60;;;5.50;99.90;;;;;;10416274;28;20056;-82
2022/04/28 02:47:52;;;;;;;33.50;17.67;;;5.70;99.90;;;;;;10436162;28;20021;-83
2022/04/28 02:52:53;;;;;;;32.37;17.00;;;5.80;99.90;;;;;;10397419;28;20107;-82
2022/04/28 02:57:54;;;;;;;32.27;17.57;;;5.80;99.90;;;;;;10445885;28;20078;-85
2022/04/28 03:02:54;;;;;;;34.90;18.17;;;5.80;99.90;;;;;;10445389;28;20135;-83
2022/04/28 03:13:17;;;;;;;37.33;19.40;;;5.80;99.90;;;;;;10414552;28;20033;-83
2022/04/28 03:18:18;;;;;;;39.07;19.10;;;5.90;99.90;;;;;;10466958;23;20127;-82
2022/04/28 03:23:18;;;;;;;36.73;20.93;;;6.00;99.90;;;;;;10455385;28;20033;-80
2022/04/28 03:28:19;;;;;;;37.87;19.93;;;6.10;99.90;;;;;;10454794;28;20044;-81
2022/04/28 03:33:20;;;;;;;33.00;19.43;;;5.90;99.90;;;;;;10454114;28;20391;-84
2022/04/28 03:38:20;;;;;;;38.73;20.73;;;5.60;99.90;;;;;;10454594;28;20068;-82
2022/04/28 03:43:22;;;;;;;38.77;22.37;;;5.40;99.90;;;;;;10436138;28;20074;-83
2022/04/28 03:48:23;;;;;;;39.27;21.80;;;5.20;99.90;;;;;;10452569;28;20025;-82
2022/04/28 03:53:24;;;;;;;44.13;24.00;;;5.10;99.90;;;;;;10454975;28;20037;-81
2022/04/28 03:58:28;;;;;;;37.10;21.83;;;5.10;99.90;;;;;;10450664;28;20041;-82
2022/04/28 04:03:30;;;;;;;37.37;21.63;;;4.90;99.90;;;;;;10427279;28;20025;-82
2022/04/28 04:08:31;;;;;;;34.90;20.30;;;4.90;99.90;;;;;;10451954;28;20472;-82
2022/04/28 04:13:32;;;;;;;37.10;20.03;;;4.90;99.90;;;;;;10452811;28;20499;-82
2022/04/28 04:18:32;;;;;;;37.77;21.20;;;5.00;99.90;;;;;;10453217;28;20136;-84
2022/04/28 04:23:33;;;;;;;35.83;19.63;;;5.00;99.90;;;;;;10428705;28;20033;-83
2022/04/28 04:28:34;;;;;;;30.97;17.67;;;5.10;99.90;;;;;;10449111;28;20025;-83
2022/04/28 04:33:36;;;;;;;33.57;19.63;;;5.20;99.90;;;;;;10431038;28;20551;-82
2022/04/28 04:38:37;;;;;;;37.40;21.57;;;5.40;99.90;;;;;;10452503;28;20029;-83
2022/04/28 04:43:38;;;;;;;36.20;20.57;;;5.50;99.90;;;;;;10452327;28;20040;-85
2022/04/28 04:48:39;;;;;;;37.73;20.13;;;5.60;99.90;;;;;;10429842;28;20033;-83
2022/04/28 04:53:39;;;;;;;41.43;19.23;;;5.70;99.90;;;;;;10410770;28;20030;-83
2022/04/28 04:58:40;;;;;;;35.33;19.07;;;6.00;99.90;;;;;;10392877;28;20037;-85
2022/04/28 05:03:41;;;;;;;36.80;19.17;;;6.30;99.90;;;;;;10393199;28;20052;-82
2022/04/28 05:08:42;;;;;;;33.60;19.27;;;6.70;99.90;;;;;;10410071;28;20037;-82
2022/04/28 05:13:43;;;;;;;34.77;18.30;;;7.00;99.90;;;;;;10409996;28;20041;-85
2022/04/28 05:18:43;;;;;;;27.60;16.27;;;7.30;99.90;;;;;;10409417;28;20041;-82
2022/04/28 05:23:44;;;;;;;30.50;17.03;;;7.60;99.90;;;;;;10410760;28;20044;-82
2022/04/28 05:28:45;;;;;;;31.83;16.63;;;7.70;99.90;;;;;;10409864;28;20026;-82
2022/04/28 05:33:45;;;;;;;27.33;15.80;;;8.00;99.90;;;;;;10409437;28;20029;-82
2022/04/28 05:38:46;;;;;;;29.73;15.97;;;8.30;99.90;;;;;;10409235;28;20098;-85
2022/04/28 05:49:06;;;;;;;27.03;15.43;;;9.00;99.90;;;;;;10408911;28;20033;-81
2022/04/28 05:54:07;;;;;;;24.93;14.23;;;9.30;99.90;;;;;;10409160;28;20026;-82
2022/04/28 05:59:10;;;;;;;22.37;12.87;;;9.50;99.90;;;;;;10408473;28;20041;-82
2022/04/28 06:04:11;;;;;;;24.87;13.30;;;9.90;99.90;;;;;;10418082;28;20034;-81
2022/04/28 06:09:11;;;;;;;18.90;10.50;;;10.10;99.90;;;;;;10421183;28;20033;-82
2022/04/28 06:14:12;;;;;;;19.17;11.02;;;10.40;99.90;;;;;;10426883;28;20056;-83
2022/04/28 06:19:12;;;;;;;15.97;9.77;;;10.60;99.90;;;;;;10436502;28;20045;-83
2022/04/28 06:24:13;;;;;;;17.85;9.98;;;10.90;99.90;;;;;;10442529;28;20457;-82
2022/04/28 06:29:14;;;;;;;18.05;10.10;;;11.10;97.10;;;;;;10442505;28;20111;-83
2022/04/28 06:34:14;;;;;;;13.05;8.85;;;11.40;96.90;;;;;;10440264;28;20026;-82
2022/04/28 06:39:15;;;;;;;18.35;10.07;;;11.70;92.60;;;;;;10441290;28;20041;-82
2022/04/28 06:44:16;;;;;;;14.70;9.10;;;11.90;91.50;;;;;;10429567;28;20079;-82
2022/04/28 06:49:16;;;;;;;11.50;7.00;;;12.10;90.90;;;;;;10442379;28;20033;-84
2022/04/28 06:54:17;;;;;;;14.07;7.72;;;12.40;89.90;;;;;;10440967;28;20029;-82
2022/04/28 06:59:17;;;;;;;14.27;8.60;;;12.70;88.00;;;;;;10427428;28;20044;-82
2022/04/28 07:04:18;;;;;;;9.55;5.95;;;12.90;87.20;;;;;;10434228;28;20025;-82
2022/04/28 07:09:19;;;;;;;13.63;6.97;;;13.10;80.00;;;;;;10443761;28;20024;-83
2022/04/28 07:14:19;;;;;;;14.55;7.28;;;13.30;81.20;;;;;;10440169;28;20468;-83
2022/04/28 07:19:20;;;;;;;24.00;16.55;;;13.80;79.90;;;;;;10436009;28;20037;-83
2022/04/28 07:24:21;;;;;;;13.35;7.28;;;14.30;81.30;;;;;;10439121;28;20400;-83
2022/04/28 07:29:22;;;;;;;9.63;6.57;;;14.40;76.70;;;;;;10435186;28;20159;-82
2022/04/28 07:34:22;;;;;;;10.55;6.35;;;14.50;76.00;;;;;;10453957;28;20047;-82
2022/04/28 07:39:23;;;;;;;9.63;5.85;;;14.60;77.40;;;;;;10435416;28;20041;-81
2022/04/28 07:44:24;;;;;;;11.85;6.28;;;14.90;75.20;;;;;;10413555;28;20029;-82
2022/04/28 07:49:24;;;;;;;8.38;5.47;;;15.00;70.50;;;;;;10413029;28;20029;-82
2022/04/28 07:54:25;;;;;;;9.23;6.10;;;15.20;68.70;;;;;;10413699;28;20025;-83
2022/04/28 07:59:26;;;;;;;8.95;6.00;;;15.30;67.90;;;;;;10413095;28;20033;-83
2022/04/28 08:04:26;;;;;;;10.52;6.10;;;15.60;68.20;;;;;;10413048;28;20034;-84
2022/04/28 08:09:27;;;;;;;7.82;5.10;;;15.80;67.60;;;;;;10413232;28;20037;-83
2022/04/28 08:14:27;;;;;;;8.63;5.18;;;16.20;68.70;;;;;;10412682;28;20712;-83
2022/04/28 08:19:28;;;;;;;9.02;6.15;;;16.50;68.20;;;;;;10412611;28;20037;-82
2022/04/28 08:24:29;;;;;;;7.75;5.22;;;16.80;65.40;;;;;;10411887;28;20048;-81
2022/04/28 08:29:29;;;;;;;5.88;4.60;;;16.70;64.70;;;;;;10412933;28;20083;-85
2022/04/28 08:34:30;;;;;;;8.60;4.70;;;16.40;62.80;;;;;;10452673;28;20029;-82
2022/04/28 08:39:31;;;;;;;8.50;4.47;;;16.40;60.30;;;;;;10452882;28;20040;-83
2022/04/28 08:44:31;;;;;;;6.68;4.97;;;15.90;59.90;;;;;;10452515;28;20025;-83
2022/04/28 08:49:32;;;;;;;7.45;4.97;;;16.10;61.70;;;;;;10452264;28;20056;-83
2022/04/28 08:54:36;;;;;;;7.15;5.60;;;16.70;62.50;;;;;;10451961;28;20080;-85
2022/04/28 08:59:37;;;;;;;8.07;5.50;;;17.00;59.60;;;;;;10451790;28;20036;-82
2022/04/28 09:04:38;;;;;;;5.43;3.67;;;17.40;57.40;;;;;;10434269;28;20024;-82
2022/04/28 09:09:39;;;;;;;7.43;5.18;;;17.90;61.20;;;;;;10451528;28;20045;-82
2022/04/28 09:14:46;;;;;;;7.60;4.97;;;18.00;60.20;;;;;;10450975;28;20045;-81
2022/04/28 09:19:46;;;;;;;7.53;5.82;;;17.90;56.70;;;;;;10451418;28;20064;-83
2022/04/28 09:24:47;;;;;;;7.18;4.85;;;17.90;56.20;;;;;;10451275;28;20064;-82
2022/04/28 09:29:48;;;;;;;5.88;4.88;;;18.10;55.10;;;;;;10450954;28;20021;-84
2022/04/28 09:34:50;;;;;;;7.35;4.78;;;17.40;57.30;;;;;;10451501;28;20070;-84
2022/04/28 09:45:20;;;;;;;6.35;4.80;;;17.70;56.60;;;;;;10450789;28;20029;-82
2022/04/28 09:50:24;;;;;;;9.30;5.07;;;17.80;55.90;;;;;;10450384;28;20031;-82
2022/04/28 09:55:26;;;;;;;8.27;5.20;;;18.10;57.60;;;;;;10449162;28;20021;-82
2022/04/28 10:00:27;;;;;;;5.68;4.45;;;18.60;55.70;;;;;;10449562;28;20029;-83
2022/04/28 10:05:29;;;;;;;7.43;4.85;;;19.00;56.70;;;;;;10449809;28;20388;-85
2022/04/28 10:10:31;;;;;;;6.07;4.65;;;18.90;56.20;;;;;;10449444;28;20037;-83
2022/04/28 10:15:33;;;;;;;11.45;6.07;;;19.20;58.50;;;;;;10449639;28;20115;-82
2022/04/28 10:20:37;;;;;;;8.57;5.38;;;18.10;57.20;;;;;;10449411;28;20037;-83
2022/04/28 10:36:22;;;;;;;9.05;5.18;;;15.60;63.80;;;;;;10490541;28;20024;-83
2022/04/28 10:41:28;;;;;;;6.32;4.60;;;15.40;64.30;;;;;;10490936;28;20036;-82
2022/04/28 10:46:31;;;;;;;8.50;4.90;;;15.40;64.40;;;;;;10490101;28;20048;-82
2022/04/28 10:51:32;;;;;;;6.20;4.15;;;15.30;63.70;;;;;;10472583;28;20392;-82
2022/04/28 10:56:42;;;;;;;7.25;4.68;;;15.80;64.60;;;;;;10489892;28;20407;-83
2022/04/28 11:01:42;;;;;;;6.68;4.72;;;16.80;62.60;;;;;;10490248;28;20041;-82
2022/04/28 11:06:57;;;;;;;10.10;4.60;;;17.50;64.30;;;;;;10495018;28;20024;-83
2022/04/28 11:12:07;;;;;;;10.25;4.45;;;17.50;60.60;;;;;;10479722;28;20021;-82
2022/04/28 11:17:08;;;;;;;5.15;4.20;;;17.70;61.00;;;;;;10453708;28;20068;-83
2022/04/28 11:22:11;;;;;;;4.82;3.60;;;17.70;58.20;;;;;;10446965;28;20128;-81
2022/04/28 11:27:22;;;;;;;4.05;3.40;;;17.40;61.10;;;;;;10445593;28;20661;-83
2022/04/28 11:32:23;;;;;;;4.55;3.60;;;17.30;58.90;;;;;;10442874;28;20056;-84
2022/04/28 11:37:25;;;;;;;7.38;4.30;;;16.80;59.70;;;;;;10436119;28;20035;-82
2022/04/28 11:42:26;;;;;;;5.10;4.00;;;16.80;59.00;;;;;;10438505;28;20041;-84
2022/04/28 11:47:27;;;;;;;8.52;3.33;;;16.80;58.50;;;;;;10448807;28;20032;-81
2022/04/28 11:52:34;;;;;;;5.22;3.70;;;17.00;59.40;;;;;;10446849;28;20237;-85
2022/04/28 11:57:41;;;;;;;4.30;3.20;;;17.80;56.80;;;;;;10451976;28;20075;-81
2022/04/28 12:02:44;;;;;;;3.70;2.95;;;18.80;57.90;;;;;;10453001;28;20040;-82
2022/04/28 12:07:51;;;;;;;4.38;2.90;;;19.20;55.70;;;;;;10453018;28;20021;-81
2022/04/28 12:23:40;;;;;;;4.00;2.90;;;17.30;57.20;;;;;;10453943;28;20393;-84
2022/04/28 12:28:42;;;;;;;4.85;3.30;;;16.80;58.40;;;;;;10453222;28;20029;-84
2022/04/28 12:33:46;;;;;;;11.20;4.93;;;16.30;59.30;;;;;;10452570;28;20110;-82
2022/04/28 12:38:53;;;;;;;7.00;4.00;;;16.30;61.50;;;;;;10433600;28;20048;-82
2022/04/28 12:43:57;;;;;;;6.18;4.40;;;17.20;61.20;;;;;;10452334;28;20088;-81
2022/04/28 12:49:01;;;;;;;7.57;3.77;;;18.20;58.90;;;;;;10439137;28;20036;-81
2022/04/28 12:54:12;;;;;;;4.05;2.90;;;18.60;54.20;;;;;;10422796;28;20037;-83
2022/04/28 12:59:14;;;;;;;4.57;3.50;;;18.50;56.50;;;;;;10410583;28;20030;-81
2022/04/28 13:04:22;;;;;;;5.38;3.20;;;17.80;56.30;;;;;;10416973;28;20104;-82
2022/04/28 13:09:23;;;;;;;4.93;3.25;;;17.40;56.60;;;;;;10450591;28;20485;-81
2022/04/28 13:14:24;;;;;;;4.80;3.22;;;17.30;57.30;;;;;;10451470;28;20132;-86
2022/04/28 13:19:25;;;;;;;5.80;3.53;;;17.90;57.00;;;;;;10451135;28;20702;-83
2022/04/28 13:24:25;;;;;;;4.22;3.20;;;18.10;56.30;;;;;;10449805;28;20079;-83
2022/04/28 13:29:26;;;;;;;5.97;3.13;;;18.00;57.20;;;;;;10451244;28;20579;-84
2022/04/28 13:34:27;;;;;;;6.38;3.47;;;17.90;58.70;;;;;;10450112;28;20037;-83
2022/04/28 13:39:28;;;;;;;4.38;3.30;;;17.90;58.70;;;;;;10450388;28;20041;-85
2022/04/28 13:44:28;;;;;;;5.07;2.78;;;18.40;57.40;;;;;;10451252;28;20811;-81
2022/04/28 13:49:29;;;;;;;5.72;3.47;;;18.50;55.30;;;;;;10429951;28;20428;-81
2022/04/28 13:54:30;;;;;;;6.22;3.40;;;18.10;55.00;;;;;;10412443;28;20079;-80
2022/04/28 13:59:30;;;;;;;4.35;3.20;;;18.00;57.30;;;;;;10439125;28;20028;-81
2022/04/28 14:04:31;;;;;;;6.07;3.25;;;17.60;56.50;;;;;;10411854;28;20112;-82
2022/04/28 14:09:32;;;;;;;5.15;2.90;;;17.30;55.80;;;;;;10432326;28;20090;-80
2022/04/28 14:14:33;;;;;;;3.30;2.65;;;17.10;57.80;;;;;;10449578;28;20053;-84
2022/04/28 14:19:34;;;;;;;6.15;3.80;;;17.00;57.30;;;;;;10400619;28;20056;-83
2022/04/28 14:24:34;;;;;;;10.93;6.95;;;16.90;59.00;;;;;;10432925;28;20028;-81
2022/04/28 14:29:35;;;;;;;8.95;5.35;;;16.60;58.60;;;;;;10449970;28;20124;-84
2022/04/28 14:34:36;;;;;;;14.63;7.70;;;16.40;58.40;;;;;;10449149;28;20423;-84
2022/04/28 14:39:39;;;;;;;6.80;3.53;;;16.20;58.20;;;;;;10448030;28;20401;-81
2022/04/28 14:44:39;;;;;;;6.78;4.05;;;16.10;58.40;;;;;;10455807;28;20033;-83
2022/04/28 14:55:06;;;;;;;4.57;2.85;;;16.00;60.10;;;;;;10457676;28;20071;-84
2022/04/28 15:00:09;;;;;;;7.55;4.57;;;15.90;59.40;;;;;;10455393;28;20047;-84
2022/04/28 15:05:10;;;;;;;7.05;3.92;;;15.70;60.90;;;;;;10443514;28;20025;-83
2022/04/28 15:10:12;;;;;;;11.80;6.60;;;15.60;61.30;;;;;;10456421;28;20025;-82
2022/04/28 15:15:14;;;;;;;10.60;6.82;;;15.60;61.40;;;;;;10454313;28;20239;-81
2022/04/28 15:20:14;;;;;;;7.75;4.78;;;15.60;60.20;;;;;;10455564;28;20048;-80
2022/04/28 15:25:16;;;;;;;9.43;4.57;;;15.90;61.40;;;;;;10455069;28;20029;-82
2022/04/28 15:30:16;;;;;;;17.38;7.53;;;16.30;59.90;;;;;;10454308;28;20115;-82
2022/04/28 15:35:17;;;;;;;5.05;3.25;;;16.80;59.50;;;;;;10455522;28;20182;-83
2022/04/28 15:40:18;;;;;;;6.15;3.15;;;16.90;58.00;;;;;;10449110;28;20381;-84
2022/04/28 15:45:18;;;;;;;4.78;3.28;;;16.90;57.60;;;;;;10436518;28;20534;-84
2022/04/28 15:50:19;;;;;;;6.25;3.08;;;16.80;57.10;;;;;;10450994;28;20044;-83
2022/04/28 15:55:20;;;;;;;3.92;2.35;;;16.90;58.20;;;;;;10454638;28;20033;-83
2022/04/28 16:00:22;;;;;;;3.33;2.53;;;16.80;57.50;;;;;;10435680;28;20048;-82
2022/04/28 16:05:23;;;;;;;4.18;2.63;;;16.90;57.50;;;;;;10454417;28;20025;-83
2022/04/28 16:10:24;;;;;;;3.47;2.60;;;16.90;57.30;;;;;;10405734;28;20036;-84
2022/04/28 16:15:24;;;;;;;3.60;2.85;;;16.70;58.10;;;;;;10449459;28;20060;-82
2022/04/28 16:20:25;;;;;;;6.10;3.10;;;16.60;57.50;;;;;;10452263;28;20037;-84
2022/04/28 16:25:26;;;;;;;5.97;3.47;;;16.50;57.60;;;;;;10446514;28;20467;-83
2022/04/28 16:30:27;;;;;;;4.43;3.30;;;16.40;57.20;;;;;;10443638;28;20033;-82
2022/04/28 16:35:29;;;;;;;7.05;3.72;;;16.20;58.00;;;;;;10451473;28;20032;-81
2022/04/28 16:40:30;;;;;;;10.60;5.03;;;16.00;58.70;;;;;;10453173;28;20033;-82
2022/04/28 16:45:31;;;;;;;7.70;3.97;;;15.80;59.50;;;;;;10451029;28;20064;-82
2022/04/28 16:50:31;;;;;;;6.95;4.18;;;15.70;59.00;;;;;;10441127;28;20103;-82
2022/04/28 16:55:32;;;;;;;8.27;5.03;;;15.60;60.90;;;;;;10445246;28;20025;-84
2022/04/28 17:00:33;;;;;;;12.13;5.88;;;15.40;61.70;;;;;;10447979;28;20135;-84
2022/04/28 17:05:34;;;;;;;8.35;5.68;;;15.20;63.00;;;;;;10441485;28;20025;-82
2022/04/28 17:10:35;;;;;;;9.68;6.32;;;15.00;64.30;;;;;;10420570;28;20531;-82
2022/04/28 17:15:35;;;;;;;9.45;6.00;;;14.70;65.10;;;;;;10428036;28;20464;-83
2022/04/28 17:20:36;;;;;;;8.57;6.13;;;14.50;66.20;;;;;;10439965;28;20887;-83
2022/04/28 17:25:39;;;;;;;8.55;6.20;;;14.30;66.50;;;;;;10436412;28;20079;-82
2022/04/28 17:30:41;;;;;;;8.98;6.25;;;14.00;66.60;;;;;;10430224;28;20025;-83
2022/04/28 17:35:41;;;;;;;11.32;7.18;;;13.80;67.60;;;;;;10413491;28;20599;-82
2022/04/28 17:40:42;;;;;;;11.02;7.07;;;13.70;68.30;;;;;;10423854;28;20044;-82
2022/04/28 17:45:43;;;;;;;12.93;7.40;;;13.40;69.10;;;;;;10432846;28;20029;-83
2022/04/28 17:50:46;;;;;;;11.23;6.60;;;13.20;69.50;;;;;;10423375;28;20097;-84
2022/04/28 18:01:11;;;;;;;11.73;7.22;;;12.90;70.70;;;;;;10438824;28;20040;-82
2022/04/28 18:06:14;;;;;;;12.65;7.53;;;12.70;71.30;;;;;;10424188;28;20040;-83
2022/04/28 18:11:19;;;;;;;13.68;7.35;;;12.50;72.60;;;;;;10430350;28;20505;-83
2022/04/28 18:16:27;;;;;;;14.27;7.75;;;12.40;72.40;;;;;;10444583;23;20057;-84
2022/04/28 18:21:28;;;;;;;16.20;7.97;;;12.20;72.90;;;;;;10394218;28;20029;-85
2022/04/28 18:26:29;;;;;;;15.32;7.85;;;12.00;73.40;;;;;;10395128;28;20067;-84
2022/04/28 18:31:31;;;;;;;11.90;7.03;;;11.80;74.50;;;;;;10390497;28;20413;-84
2022/04/28 18:47:11;;;;;;;12.63;8.00;;;11.60;74.80;;;;;;10351224;28;20034;-83
2022/04/28 18:52:12;;;;;;;11.77;7.35;;;11.60;75.70;;;;;;10334095;28;20022;-85
2022/04/28 18:57:17;;;;;;;15.05;6.93;;;11.60;75.40;;;;;;10363978;28;20480;-83
2022/04/28 19:02:18;;;;;;;11.63;7.90;;;11.60;75.40;;;;;;10372695;23;20113;-81
2022/04/28 19:07:19;;;;;;;15.05;8.18;;;11.60;75.70;;;;;;10471496;28;20026;-86
2022/04/28 19:12:20;;;;;;;14.23;8.10;;;11.60;75.70;;;;;;10475622;28;20111;-83
2022/04/28 19:17:24;;;;;;;11.90;8.00;;;11.60;75.40;;;;;;10486734;28;20118;-82
2022/04/28 19:22:25;;;;;;;13.10;8.55;;;11.60;75.40;;;;;;10485409;28;20495;-84
2022/04/28 19:27:27;;;;;;;16.25;9.07;;;11.60;75.90;;;;;;10492498;28;20040;-84
2022/04/28 19:32:28;;;;;;;17.00;9.52;;;11.40;76.00;;;;;;10481791;28;20182;-85
2022/04/28 19:37:29;;;;;;;15.13;9.40;;;11.40;76.40;;;;;;10489674;28;20061;-85
2022/04/28 19:42:30;;;;;;;15.70;9.13;;;11.30;76.70;;;;;;10494049;28;20036;-84
2022/04/28 19:47:31;;;;;;;13.73;8.43;;;11.20;76.70;;;;;;10493576;28;20021;-82
2022/04/28 19:52:32;;;;;;;12.30;7.18;;;11.20;77.10;;;;;;10466013;28;20029;-86
2022/04/28 19:57:35;;;;;;;14.23;7.70;;;11.10;76.90;;;;;;10492890;28;20029;-83
2022/04/28 20:02:36;;;;;;;12.98;7.15;;;11.10;76.50;;;;;;10462401;23;20069;-86
2022/04/28 20:07:37;;;;;;;11.65;7.05;;;11.20;76.60;;;;;;10408834;28;20038;-85
2022/04/28 20:12:39;;;;;;;10.13;6.90;;;11.20;76.50;;;;;;10410544;28;20041;-84
2022/04/28 20:17:41;;;;;;;12.07;7.72;;;11.10;76.60;;;;;;10393926;28;20108;-83
2022/04/28 20:22:43;;;;;;;14.23;8.20;;;11.10;76.80;;;;;;10410188;28;20099;-84
2022/04/28 20:27:47;;;;;;;10.52;6.95;;;11.00;76.90;;;;;;10412159;28;20030;-83
2022/04/28 20:32:49;;;;;;;14.98;7.60;;;11.00;77.10;;;;;;10411616;28;20049;-85
2022/04/28 20:37:51;;;;;;;12.55;6.57;;;10.90;77.20;;;;;;10380423;28;20512;-83
2022/04/28 20:42:52;;;;;;;12.40;6.40;;;10.80;77.40;;;;;;10367200;28;20046;-84
2022/04/28 20:47:54;;;;;;;12.13;7.07;;;10.80;77.80;;;;;;10355836;28;20449;-83
2022/04/28 20:52:54;;;;;;;13.40;6.68;;;10.80;77.40;;;;;;10375729;28;20029;-85
2022/04/28 20:57:55;;;;;;;11.00;6.33;;;10.80;77.20;;;;;;10353272;28;20025;-86
2022/04/28 21:02:56;;;;;;;15.90;7.83;;;10.90;77.80;;;;;;10373633;28;20050;-87
2022/04/28 21:08:00;;;;;;;14.07;7.17;;;10.80;77.20;;;;;;10371663;28;20461;-83
2022/04/28 21:13:02;;;;;;;12.35;7.35;;;10.80;77.40;;;;;;10371041;28;20021;-83
2022/04/28 21:18:02;;;;;;;13.87;7.13;;;10.70;77.50;;;;;;10370281;28;20574;-83
2022/04/28 21:23:03;;;;;;;13.93;7.20;;;10.60;77.70;;;;;;10372887;28;20040;-84
2022/04/28 21:28:05;;;;;;;12.17;6.73;;;10.50;77.80;;;;;;10382733;28;20124;-84
2022/04/28 21:33:06;;;;;;;12.30;7.80;;;10.50;78.20;;;;;;10408560;28;20042;-84
2022/04/28 21:38:07;;;;;;;16.38;7.63;;;10.40;78.30;;;;;;10408783;28;20071;-83
2022/04/28 21:43:08;;;;;;;17.17;8.13;;;10.50;78.30;;;;;;10408788;28;20509;-88
2022/04/28 21:48:10;;;;;;;15.27;7.80;;;10.50;78.20;;;;;;10407503;28;20032;-87
2022/04/28 21:53:11;;;;;;;18.63;8.53;;;10.40;78.20;;;;;;10408453;28;20558;-85
2022/04/28 21:58:11;;;;;;;15.90;8.13;;;10.40;78.40;;;;;;10407877;28;20082;-84
2022/04/28 22:03:12;;;;;;;15.33;8.00;;;10.30;78.60;;;;;;10406706;28;20057;-83
2022/04/28 22:13:32;;;;;;;15.57;7.90;;;10.20;78.90;;;;;;10408376;28;20484;-82
2022/04/28 22:18:33;;;;;;;15.93;7.87;;;10.10;79.40;;;;;;10402509;28;20030;-84
2022/04/28 22:23:34;;;;;;;13.13;7.67;;;10.00;79.70;;;;;;10408001;28;20045;-83
2022/04/28 22:28:34;;;;;;;15.83;7.67;;;10.00;80.30;;;;;;10390944;28;20061;-84
2022/04/28 22:33:37;;;;;;;13.60;7.83;;;9.80;80.40;;;;;;10407507;28;20037;-84
2022/04/28 22:38:38;;;;;;;14.70;7.53;;;9.80;80.80;;;;;;10389866;28;20087;-85
2022/04/28 22:43:41;;;;;;;13.77;7.80;;;9.70;81.00;;;;;;10408063;28;20041;-85
2022/04/28 22:48:42;;;;;;;14.53;8.03;;;9.70;81.00;;;;;;10391022;28;20068;-85
2022/04/28 22:53:46;;;;;;;16.40;8.60;;;9.70;81.20;;;;;;10408763;28;20034;-84
2022/04/28 22:58:47;;;;;;;15.60;8.20;;;9.70;81.40;;;;;;10406495;28;20030;-82
2022/04/28 23:03:48;;;;;;;15.43;8.27;;;9.70;82.00;;;;;;10414203;28;20527;-84
2022/04/28 23:08:48;;;;;;;15.77;8.13;;;9.70;81.50;;;;;;10414536;28;20026;-86
2022/04/28 23:13:49;;;;;;;15.97;8.63;;;9.70;81.70;;;;;;10414630;28;20087;-87
2022/04/28 23:18:50;;;;;;;16.63;8.73;;;9.60;82.00;;;;;;10413175;28;20396;-84
2022/04/28 23:23:52;;;;;;;15.37;8.63;;;9.40;82.70;;;;;;10404921;28;20539;-84
2022/04/28 23:28:55;;;;;;;15.77;8.47;;;9.20;83.40;;;;;;10413949;28;20041;-84
2022/04/28 23:38:21;;;;;;;14.77;8.70;;;8.90;85.60;;;;;;10413231;28;20036;-84
2022/04/28 23:39:16;;;;;;;16.53;9.50;;;8.50;87.50;;;;;;10412535;28;20600;-83
2022/04/28 23:44:16;;;;;;;15.53;8.83;;;8.30;89.50;;;;;;10413347;28;20135;-83
2022/04/28 23:49:17;;;;;;;16.00;8.47;;;8.10;91.30;;;;;;10413069;28;20041;-84
2022/04/28 23:59:40;;;;;;;19.07;10.50;;;7.60;94.30;;;;;;10399656;28;20128;-84
